createdAt,value
2023-04-06T00:01:37.767Z,-0.93
2023-04-06T00:04:06.508Z,-0.92
2023-04-06T00:06:34.729Z,-0.92
2023-04-06T00:09:03.144Z,-0.85
2023-04-06T00:11:32.539Z,-0.85
2023-04-06T00:14:01.330Z,-0.87
2023-04-06T00:16:30.561Z,-0.86
2023-04-06T00:18:58.689Z,-0.93
2023-04-06T00:21:26.898Z,-0.89
2023-04-06T00:23:54.839Z,-0.91
2023-04-06T00:26:22.792Z,-0.84
2023-04-06T00:28:53.464Z,-0.86
2023-04-06T00:31:21.442Z,-0.88
2023-04-06T00:33:50.626Z,-1.00
2023-04-06T00:36:18.711Z,-1.05
2023-04-06T00:38:46.678Z,-1.00
2023-04-06T00:41:15.002Z,-0.87
2023-04-06T00:43:43.008Z,-0.79
2023-04-06T00:46:12.373Z,-0.98
2023-04-06T00:48:41.771Z,-1.00
2023-04-06T00:51:09.880Z,-0.99
2023-04-06T00:53:37.819Z,-1.03
2023-04-06T00:56:06.441Z,-0.80
2023-04-06T00:58:34.476Z,-0.76
2023-04-06T01:01:02.690Z,-0.74
2023-04-06T01:03:32.031Z,-0.93
2023-04-06T01:06:00.303Z,-0.73
2023-04-06T01:08:29.454Z,-0.86
2023-04-06T01:10:57.385Z,-0.64
2023-04-06T01:13:25.417Z,-0.75
2023-04-06T01:15:53.468Z,-0.74
2023-04-06T01:18:27.337Z,-0.67
2023-04-06T01:20:56.834Z,-0.87
2023-04-06T01:23:26.173Z,-0.69
2023-04-06T01:25:54.122Z,-0.80
2023-04-06T01:28:22.065Z,-0.66
2023-04-06T01:30:50.099Z,-0.62
2023-04-06T01:33:17.968Z,-0.56
2023-04-06T01:35:46.083Z,-0.51
2023-04-06T01:38:14.115Z,-0.70
2023-04-06T01:40:43.431Z,-0.56
2023-04-06T01:43:11.576Z,-0.79
2023-04-06T01:45:39.512Z,-0.62
2023-04-06T01:48:09.653Z,-0.77
2023-04-06T01:50:37.639Z,-0.76
2023-04-06T01:53:05.639Z,-0.80
2023-04-06T01:55:33.581Z,-0.75
2023-04-06T01:58:02.875Z,-0.63
2023-04-06T02:00:30.881Z,-0.67
2023-04-06T02:02:58.870Z,-0.59
2023-04-06T02:05:27.581Z,-0.64
2023-04-06T02:07:55.755Z,-0.64
2023-04-06T02:10:23.698Z,-0.68
2023-04-06T02:12:51.747Z,-0.51
2023-04-06T02:15:21.081Z,-0.49
2023-04-06T02:17:49.146Z,-0.46
2023-04-06T02:20:17.423Z,-0.77
2023-04-06T02:22:45.547Z,-0.60
2023-04-06T02:25:13.699Z,-0.52
2023-04-06T02:27:41.681Z,-0.51
2023-04-06T02:30:10.436Z,-0.55
2023-04-06T02:32:39.762Z,-0.50
2023-04-06T02:35:08.328Z,-0.45
2023-04-06T02:37:36.345Z,-0.40
2023-04-06T02:40:04.527Z,-0.57
2023-04-06T02:42:32.485Z,-0.36
2023-04-06T02:45:00.437Z,-0.38
2023-04-06T02:47:28.490Z,-0.44
2023-04-06T02:49:57.841Z,-0.45
2023-04-06T02:52:25.964Z,-0.43
2023-04-06T02:54:53.932Z,-0.43
2023-04-06T02:57:22.001Z,-0.51
2023-04-06T02:59:49.939Z,-0.43
2023-04-06T03:02:17.965Z,-0.46
2023-04-06T03:04:46.744Z,-0.39
2023-04-06T03:07:16.221Z,-0.45
2023-04-06T03:09:44.585Z,-0.47
2023-04-06T03:12:12.605Z,-0.47
2023-04-06T03:14:40.543Z,-0.46
2023-04-06T03:17:08.466Z,-0.66
2023-04-06T03:19:36.434Z,-0.42
2023-04-06T03:22:04.412Z,-0.50
2023-04-06T03:24:33.810Z,-0.51
2023-04-06T03:27:02.079Z,-0.53
2023-04-06T03:29:30.073Z,-0.39
2023-04-06T03:31:58.018Z,-0.44
2023-04-06T03:34:25.923Z,-0.38
2023-04-06T03:37:06.735Z,-0.50
2023-04-06T03:39:39.063Z,-0.52
2023-04-06T03:42:07.112Z,-0.34
2023-04-06T03:44:35.069Z,-0.31
2023-04-06T03:47:03.297Z,-0.56
2023-04-06T03:49:31.380Z,-0.31
2023-04-06T03:51:59.458Z,-0.26
2023-04-06T03:54:27.604Z,-0.42
2023-04-06T03:56:57.404Z,-0.20
2023-04-06T03:59:25.495Z,-0.14
2023-04-06T04:01:53.816Z,-0.16
2023-04-06T04:04:21.799Z,-0.19
2023-04-06T04:06:49.794Z,-0.23
2023-04-06T04:09:17.752Z,-0.21
2023-04-06T04:11:45.637Z,-0.19
2023-04-06T04:14:15.040Z,-0.31
2023-04-06T04:16:43.156Z,-0.17
2023-04-06T04:19:11.251Z,-0.34
2023-04-06T04:21:45.834Z,-0.26
2023-04-06T04:24:14.092Z,-0.32
2023-04-06T04:26:42.470Z,-0.38
2023-04-06T04:29:10.743Z,-0.37
2023-04-06T04:31:40.514Z,-0.23
2023-04-06T04:34:08.876Z,-0.23
2023-04-06T04:36:36.866Z,-0.23
2023-04-06T04:39:04.959Z,-0.18
2023-04-06T04:41:32.901Z,-0.13
2023-04-06T04:44:00.940Z,-0.18
2023-04-06T04:46:28.911Z,-0.16
2023-04-06T04:48:58.628Z,-0.15
2023-04-06T04:51:26.921Z,-0.18
2023-04-06T04:53:54.915Z,-0.21
2023-04-06T04:56:27.611Z,-0.12
2023-04-06T04:58:55.633Z,-0.10
2023-04-06T05:01:23.719Z,-0.14
2023-04-06T05:03:51.760Z,-0.10
2023-04-06T05:06:21.345Z,-0.24
2023-04-06T05:08:49.321Z,-0.12
2023-04-06T05:11:17.386Z,-0.09
2023-04-06T05:13:45.506Z,-0.24
2023-04-06T05:16:13.584Z,-0.22
2023-04-06T05:18:41.824Z,0.01
2023-04-06T05:21:09.905Z,-0.06
2023-04-06T05:23:39.209Z,-0.04
2023-04-06T05:26:07.202Z,0.02
2023-04-06T05:28:35.141Z,0.02
2023-04-06T05:31:03.146Z,-0.05
2023-04-06T05:33:31.196Z,-0.02
2023-04-06T05:35:59.188Z,0.03
2023-04-06T05:38:27.173Z,-0.14
2023-04-06T05:40:56.772Z,0.12
2023-04-06T05:43:24.728Z,0.09
2023-04-06T05:45:52.738Z,0.10
2023-04-06T05:48:20.976Z,0.10
2023-04-06T05:50:51.500Z,0.01
2023-04-06T05:53:19.460Z,0.03
2023-04-06T05:55:47.418Z,0.20
2023-04-06T05:58:18.202Z,0.23
2023-04-06T06:00:47.121Z,0.21
2023-04-06T06:03:16.260Z,0.26
2023-04-06T06:05:44.340Z,0.24
2023-04-06T06:08:12.411Z,-0.05
2023-04-06T06:10:41.406Z,0.23
2023-04-06T06:13:09.577Z,0.18
2023-04-06T06:15:38.865Z,0.14
2023-04-06T06:18:07.290Z,0.24
2023-04-06T06:20:35.359Z,0.34
2023-04-06T06:23:04.090Z,0.10
2023-04-06T06:25:32.715Z,0.05
2023-04-06T06:28:00.948Z,0.24
2023-04-06T06:30:28.899Z,0.22
2023-04-06T06:32:58.307Z,0.36
2023-04-06T06:35:26.421Z,0.62
2023-04-06T06:37:54.530Z,0.69
2023-04-06T06:40:25.146Z,0.67
2023-04-06T06:42:53.731Z,0.79
2023-04-06T06:45:22.516Z,0.73
2023-04-06T06:47:53.614Z,0.40
2023-04-06T06:50:25.843Z,0.38
2023-04-06T06:52:53.942Z,0.57
2023-04-06T06:55:21.878Z,0.73
2023-04-06T06:57:49.937Z,0.91
2023-04-06T07:00:18.321Z,0.90
2023-04-06T07:02:46.667Z,1.05
2023-04-06T07:05:26.967Z,1.25
2023-04-06T07:07:58.150Z,1.44
2023-04-06T07:10:27.024Z,1.08
2023-04-06T07:12:55.141Z,1.07
2023-04-06T07:15:23.265Z,1.10
2023-04-06T07:17:51.437Z,0.93
2023-04-06T07:20:19.766Z,1.08
2023-04-06T07:22:47.773Z,1.28
2023-04-06T07:25:21.159Z,1.40
2023-04-06T07:27:51.259Z,1.35
2023-04-06T07:30:19.851Z,1.50
2023-04-06T07:32:51.818Z,1.63
2023-04-06T07:35:22.748Z,1.73
2023-04-06T07:37:53.469Z,1.65
2023-04-06T07:40:23.508Z,1.99
2023-04-06T07:42:55.285Z,1.71
2023-04-06T07:45:24.559Z,1.77
2023-04-06T07:47:55.213Z,1.58
2023-04-06T07:50:23.589Z,1.57
2023-04-06T07:52:52.540Z,1.43
2023-04-06T07:55:23.272Z,1.39
2023-04-06T07:57:51.966Z,1.58
2023-04-06T08:00:22.740Z,1.79
2023-04-06T08:02:51.711Z,1.84
2023-04-06T08:05:20.202Z,1.95
2023-04-06T08:07:48.576Z,2.05
2023-04-06T08:10:17.733Z,1.88
2023-04-06T08:12:47.560Z,1.98
2023-04-06T08:15:16.117Z,1.98
2023-04-06T08:17:44.743Z,1.56
2023-04-06T08:20:13.084Z,1.68
2023-04-06T08:22:43.668Z,1.75
2023-04-06T08:25:11.746Z,2.02
2023-04-06T08:27:40.588Z,2.20
2023-04-06T08:30:11.625Z,2.18
2023-04-06T08:32:39.760Z,2.40
2023-04-06T08:35:09.118Z,2.42
2023-04-06T08:37:42.085Z,2.42
2023-04-06T08:40:11.120Z,2.64
2023-04-06T08:42:50.441Z,2.56
2023-04-06T08:45:22.955Z,2.77
2023-04-06T08:47:53.447Z,2.57
2023-04-06T08:50:21.815Z,2.90
2023-04-06T08:52:51.072Z,2.80
2023-04-06T08:55:19.304Z,2.76
2023-04-06T08:57:49.184Z,2.68
2023-04-06T09:00:20.543Z,2.44
2023-04-06T09:02:49.812Z,2.60
2023-04-06T09:05:18.705Z,2.81
2023-04-06T09:07:47.651Z,2.35
2023-04-06T09:10:16.515Z,2.37
2023-04-06T09:12:45.220Z,2.49
2023-04-06T09:15:24.340Z,2.79
2023-04-06T09:17:56.297Z,2.87
2023-04-06T09:20:26.919Z,2.74
2023-04-06T09:25:37.276Z,2.78
2023-04-06T09:28:08.125Z,3.19
2023-04-06T09:30:39.561Z,3.47
2023-04-06T09:33:08.096Z,3.30
2023-04-06T09:35:36.409Z,3.49
2023-04-06T09:38:13.575Z,3.54
2023-04-06T09:41:00.637Z,3.76
2023-04-06T09:43:30.008Z,3.48
2023-04-06T09:45:59.815Z,3.83
2023-04-06T09:48:29.969Z,3.82
2023-04-06T09:51:02.461Z,3.54
2023-04-06T09:53:33.758Z,3.25
2023-04-06T09:56:05.449Z,3.42
2023-04-06T09:58:38.494Z,3.40
2023-04-06T10:01:14.633Z,3.44
2023-04-06T10:03:50.223Z,2.80
2023-04-06T10:06:24.028Z,3.17
2023-04-06T10:09:00.697Z,3.18
2023-04-06T10:11:29.182Z,3.43
2023-04-06T10:13:58.106Z,3.37
2023-04-06T10:16:29.129Z,3.99
2023-04-06T10:19:01.070Z,3.53
2023-04-06T10:21:31.846Z,3.58
2023-04-06T10:24:01.992Z,3.87
2023-04-06T10:26:30.203Z,3.53
2023-04-06T10:29:05.923Z,3.64
2023-04-06T10:31:35.566Z,3.93
2023-04-06T10:34:04.921Z,4.57
2023-04-06T10:36:35.912Z,4.47
2023-04-06T10:39:05.932Z,4.16
2023-04-06T10:41:38.015Z,4.06
2023-04-06T10:44:06.569Z,4.23
2023-04-06T10:46:36.499Z,4.80
2023-04-06T10:49:14.066Z,5.32
2023-04-06T10:51:42.455Z,5.69
2023-04-06T10:54:11.859Z,5.63
2023-04-06T10:56:41.032Z,5.19
2023-04-06T10:59:09.670Z,5.59
2023-04-06T11:01:39.168Z,5.64
2023-04-06T11:04:09.600Z,5.14
2023-04-06T11:06:37.692Z,5.21
2023-04-06T11:09:05.813Z,5.33
2023-04-06T11:11:33.877Z,6.06
2023-04-06T11:14:04.264Z,5.64
2023-04-06T11:16:34.286Z,5.91
2023-04-06T11:19:05.881Z,5.81
2023-04-06T11:24:36.639Z,5.85
2023-04-06T11:27:07.619Z,6.24
2023-04-06T11:29:37.990Z,6.38
2023-04-06T11:32:07.852Z,6.58
2023-04-06T11:34:39.679Z,6.34
2023-04-06T11:37:11.444Z,6.81
2023-04-06T11:39:41.641Z,6.11
2023-04-06T11:42:10.281Z,6.04
2023-04-06T11:44:40.137Z,5.86
2023-04-06T11:47:11.389Z,5.78
2023-04-06T11:49:41.890Z,4.72
2023-04-06T11:52:17.697Z,4.33
2023-04-06T11:54:46.278Z,4.59
2023-04-06T11:57:16.361Z,4.94
2023-04-06T11:59:45.910Z,5.04
2023-04-06T12:02:14.311Z,5.22
2023-04-06T12:04:44.517Z,5.07
2023-04-06T12:07:13.723Z,5.14
2023-04-06T12:09:44.346Z,5.08
2023-04-06T12:12:12.449Z,5.00
2023-04-06T12:14:40.571Z,4.74
2023-04-06T12:17:08.973Z,4.82
2023-04-06T12:20:13.493Z,4.42
2023-04-06T12:22:51.906Z,4.55
2023-04-06T12:25:20.912Z,4.36
2023-04-06T12:27:55.480Z,4.48
2023-04-06T12:30:23.778Z,4.46
2023-04-06T12:32:52.724Z,4.44
2023-04-06T12:35:22.848Z,4.52
2023-04-06T12:37:53.820Z,4.40
2023-04-06T12:40:22.740Z,4.29
2023-04-06T12:42:50.857Z,4.16
2023-04-06T12:45:19.996Z,4.09
2023-04-06T12:47:48.832Z,4.37
2023-04-06T12:50:27.904Z,4.38
2023-04-06T12:52:57.681Z,4.57
2023-04-06T12:55:26.079Z,4.40
2023-04-06T12:57:54.118Z,4.28
2023-04-06T13:00:23.576Z,4.61
2023-04-06T13:02:51.852Z,4.50
2023-04-06T13:05:20.253Z,4.80
2023-04-06T13:07:48.677Z,4.88
2023-04-06T13:10:18.246Z,4.81
2023-04-06T13:12:46.263Z,4.80
2023-04-06T13:15:14.448Z,4.74
2023-04-06T13:17:42.622Z,4.79
2023-04-06T13:20:12.153Z,4.74
2023-04-06T13:22:40.161Z,4.66
2023-04-06T13:25:08.634Z,4.81
2023-04-06T13:27:38.205Z,4.88
2023-04-06T13:32:48.253Z,4.41
2023-04-06T13:35:17.661Z,4.37
2023-04-06T13:37:46.378Z,4.28
2023-04-06T13:40:14.681Z,4.57
2023-04-06T13:42:45.971Z,4.81
2023-04-06T13:45:14.549Z,4.82
2023-04-06T13:47:42.503Z,4.94
2023-04-06T13:50:11.084Z,4.94
2023-04-06T13:52:39.010Z,4.83
2023-04-06T13:55:07.784Z,4.68
2023-04-06T13:57:37.074Z,4.85
2023-04-06T14:00:08.374Z,4.87
2023-04-06T14:02:36.801Z,4.91
2023-04-06T14:05:05.446Z,5.01
2023-04-06T14:07:33.492Z,5.04
2023-04-06T14:10:02.114Z,4.90
2023-04-06T14:12:30.145Z,4.80
2023-04-06T14:14:58.094Z,4.69
2023-04-06T14:17:27.563Z,4.66
2023-04-06T14:19:55.855Z,4.56
2023-04-06T14:22:23.984Z,4.51
2023-04-06T14:24:51.832Z,4.55
2023-04-06T14:27:20.209Z,4.46
2023-04-06T14:29:58.531Z,4.29
2023-04-06T14:32:27.908Z,4.41
2023-04-06T14:34:55.989Z,4.22
2023-04-06T14:37:23.846Z,4.08
2023-04-06T14:39:51.884Z,3.98
2023-04-06T14:42:21.307Z,3.95
2023-04-06T14:44:49.855Z,4.22
2023-04-06T14:47:21.289Z,4.41
2023-04-06T14:49:52.932Z,4.52
2023-04-06T14:52:20.798Z,4.51
2023-04-06T14:54:48.983Z,4.37
2023-04-06T14:57:17.370Z,4.34
2023-04-06T14:59:45.427Z,4.21
2023-04-06T15:02:13.597Z,4.11
2023-04-06T15:04:42.010Z,3.96
2023-04-06T15:07:12.031Z,3.74
2023-04-06T15:09:39.904Z,3.73
2023-04-06T15:12:08.270Z,3.92
2023-04-06T15:14:36.394Z,4.04
2023-04-06T15:17:04.599Z,4.12
2023-04-06T15:19:32.732Z,3.84
2023-04-06T15:22:14.736Z,3.66
2023-04-06T15:24:46.188Z,3.54
2023-04-06T15:27:14.157Z,3.60
2023-04-06T15:29:45.108Z,3.65
2023-04-06T15:32:13.424Z,3.52
2023-04-06T15:34:41.573Z,3.35
2023-04-06T15:37:09.962Z,3.26
2023-04-06T15:39:38.493Z,3.11
2023-04-06T15:42:08.060Z,3.18
2023-04-06T15:44:36.753Z,3.17
2023-04-06T15:47:04.973Z,3.15
2023-04-06T15:49:33.072Z,3.39
2023-04-06T15:52:01.038Z,3.44
2023-04-06T15:54:29.155Z,3.33
2023-04-06T15:56:57.064Z,3.49
2023-04-06T15:59:26.420Z,3.24
2023-04-06T16:01:55.968Z,2.99
2023-04-06T16:04:24.034Z,2.99
2023-04-06T16:06:55.257Z,2.94
2023-04-06T16:09:23.358Z,3.03
2023-04-06T16:11:51.917Z,3.02
2023-04-06T16:14:20.025Z,3.06
2023-04-06T16:16:50.590Z,2.96
2023-04-06T16:19:18.960Z,2.99
2023-04-06T16:21:47.672Z,2.99
2023-04-06T16:24:15.830Z,2.85
2023-04-06T16:26:44.566Z,2.73
2023-04-06T16:29:13.043Z,2.64
2023-04-06T16:31:41.845Z,2.64
2023-04-06T16:34:11.629Z,2.72
2023-04-06T16:36:42.544Z,2.61
2023-04-06T16:39:11.860Z,2.53
2023-04-06T16:41:40.896Z,2.57
2023-04-06T16:44:09.541Z,2.59
2023-04-06T16:46:39.387Z,2.56
2023-04-06T16:49:08.045Z,2.41
2023-04-06T16:51:38.023Z,2.43
2023-04-06T16:54:06.473Z,2.53
2023-04-06T16:56:34.608Z,2.58
2023-04-06T16:59:02.607Z,2.58
2023-04-06T17:01:31.499Z,2.64
2023-04-06T17:04:00.597Z,2.54
2023-04-06T17:06:28.841Z,2.64
2023-04-06T17:08:59.911Z,2.67
2023-04-06T17:11:32.791Z,2.72
2023-04-06T17:14:11.810Z,2.67
2023-04-06T17:16:40.415Z,2.75
2023-04-06T17:19:08.946Z,2.70
2023-04-06T17:21:37.130Z,2.61
2023-04-06T17:24:08.707Z,2.59
2023-04-06T17:26:36.747Z,2.61
2023-04-06T17:29:04.633Z,2.65
2023-04-06T17:31:32.720Z,2.58
2023-04-06T17:34:01.026Z,2.56
2023-04-06T17:36:29.382Z,2.57
2023-04-06T17:38:57.303Z,2.56
2023-04-06T17:41:28.776Z,2.40
2023-04-06T17:43:58.669Z,2.48
2023-04-06T17:46:27.262Z,2.61
2023-04-06T17:48:55.450Z,2.68
2023-04-06T17:51:25.074Z,2.60
2023-04-06T17:53:56.043Z,2.53
2023-04-06T17:56:24.757Z,2.54
2023-04-06T17:58:57.036Z,2.61
2023-04-06T18:01:25.168Z,2.62
2023-04-06T18:03:53.348Z,2.52
2023-04-06T18:06:25.506Z,2.50
2023-04-06T18:08:58.569Z,2.53
2023-04-06T18:11:29.488Z,2.44
2023-04-06T18:13:59.431Z,2.53
2023-04-06T18:16:28.405Z,2.54
2023-04-06T18:19:10.858Z,2.49
2023-04-06T18:21:41.050Z,2.50
2023-04-06T18:24:12.299Z,2.47
2023-04-06T18:26:43.517Z,2.47
2023-04-06T18:29:13.220Z,2.55
2023-04-06T18:31:41.242Z,2.46
2023-04-06T18:34:09.814Z,2.47
2023-04-06T18:39:49.429Z,2.65
2023-04-06T18:42:19.643Z,2.73
2023-04-06T18:44:49.736Z,2.64
2023-04-06T18:47:17.931Z,2.52
2023-04-06T18:49:46.893Z,2.53
2023-04-06T18:52:20.076Z,2.50
2023-04-06T18:54:49.746Z,2.47
2023-04-06T18:57:17.807Z,2.55
2023-04-06T18:59:55.218Z,2.54
2023-04-06T19:02:23.353Z,2.48
2023-04-06T19:04:51.974Z,2.55
2023-04-06T19:07:20.088Z,2.63
2023-04-06T19:09:49.613Z,2.62
2023-04-06T19:12:39.629Z,2.58
2023-04-06T19:15:11.013Z,2.56
2023-04-06T19:17:39.335Z,2.52
2023-04-06T19:20:08.884Z,2.60
2023-04-06T19:22:37.425Z,2.51
2023-04-06T19:25:06.300Z,2.55
2023-04-06T19:27:34.368Z,2.49
2023-04-06T19:30:02.457Z,2.54
2023-04-06T19:32:31.994Z,2.48
2023-04-06T19:35:02.153Z,2.47
2023-04-06T19:37:30.804Z,2.49
2023-04-06T19:39:59.042Z,2.54
2023-04-06T19:42:28.520Z,2.53
2023-04-06T19:44:57.450Z,2.59
2023-04-06T19:47:26.968Z,2.57
2023-04-06T19:49:58.697Z,2.52
2023-04-06T19:52:28.596Z,2.50
2023-04-06T19:54:57.379Z,2.45
2023-04-06T19:57:25.966Z,2.58
2023-04-06T19:59:55.630Z,2.48
2023-04-06T20:02:24.608Z,2.41
2023-04-06T20:04:53.870Z,2.38
2023-04-06T20:07:23.927Z,2.29
2023-04-06T20:09:52.102Z,2.30
2023-04-06T20:12:20.111Z,2.19
2023-04-06T20:14:48.066Z,2.28
2023-04-06T20:17:16.039Z,2.26
2023-04-06T20:19:44.082Z,2.26
2023-04-06T20:22:12.066Z,2.33
2023-04-06T20:24:41.449Z,2.32
2023-04-06T20:27:10.063Z,2.31
2023-04-06T20:29:38.283Z,2.28
2023-04-06T20:32:07.432Z,2.34
2023-04-06T20:34:36.530Z,2.39
2023-04-06T20:37:05.243Z,2.42
2023-04-06T20:39:33.992Z,2.35
2023-04-06T20:42:03.520Z,2.37
2023-04-06T20:44:31.521Z,2.35
2023-04-06T20:46:59.741Z,2.40
2023-04-06T20:49:30.490Z,2.42
2023-04-06T20:51:58.624Z,2.41
2023-04-06T20:54:27.037Z,2.48
2023-04-06T20:56:56.146Z,2.40
2023-04-06T20:59:28.081Z,2.41
2023-04-06T21:01:56.336Z,2.24
2023-04-06T21:04:24.587Z,2.32
2023-04-06T21:06:53.328Z,2.31
2023-04-06T21:09:21.564Z,2.37
2023-04-06T21:11:49.766Z,2.36
2023-04-06T21:14:20.588Z,2.37
2023-04-06T21:16:51.989Z,2.42
2023-04-06T21:19:19.949Z,2.42
2023-04-06T21:21:47.792Z,2.52
2023-04-06T21:24:16.049Z,2.54
2023-04-06T21:26:44.039Z,2.64
2023-04-06T21:29:14.578Z,2.76
2023-04-06T21:31:42.830Z,2.69
2023-04-06T21:34:13.118Z,2.74
2023-04-06T21:36:41.944Z,2.68
2023-04-06T21:39:10.013Z,2.69
2023-04-06T21:41:37.973Z,2.71
2023-04-06T21:44:06.007Z,2.64
2023-04-06T21:46:34.312Z,2.59
2023-04-06T21:49:02.269Z,2.60
2023-04-06T21:51:32.315Z,2.60
2023-04-06T21:54:00.325Z,2.51
2023-04-06T21:56:28.304Z,2.49
2023-04-06T21:58:56.287Z,2.35
2023-04-06T22:01:24.147Z,2.43
2023-04-06T22:03:55.992Z,2.39
2023-04-06T22:06:25.620Z,2.34
2023-04-06T22:08:55.003Z,2.32
2023-04-06T22:11:22.962Z,2.25
2023-04-06T22:13:51.010Z,2.21
2023-04-06T22:16:19.353Z,2.24
2023-04-06T22:18:47.270Z,2.21
2023-04-06T22:21:15.570Z,2.23
2023-04-06T22:23:43.549Z,2.18
2023-04-06T22:26:13.121Z,2.16
2023-04-06T22:28:42.231Z,2.11
2023-04-06T22:31:10.185Z,2.17
2023-04-06T22:33:38.074Z,2.10
2023-04-06T22:36:06.559Z,2.05
2023-04-06T22:38:34.464Z,2.07
2023-04-06T22:41:02.366Z,2.05
2023-04-06T22:43:31.663Z,2.11
2023-04-06T22:46:00.144Z,2.13
2023-04-06T22:48:29.069Z,2.04
2023-04-06T22:50:57.168Z,2.03
2023-04-06T22:53:25.076Z,2.04
2023-04-06T22:55:52.998Z,2.00
2023-04-06T22:58:21.176Z,1.96
2023-04-06T23:00:50.514Z,1.96
2023-04-06T23:03:18.542Z,1.94
2023-04-06T23:05:47.652Z,1.98
2023-04-06T23:08:15.613Z,1.93
2023-04-06T23:10:43.473Z,1.95
2023-04-06T23:13:11.742Z,1.95
2023-04-06T23:15:39.690Z,1.93
2023-04-06T23:18:08.969Z,1.94
2023-04-06T23:20:36.894Z,1.90
2023-04-06T23:23:04.723Z,1.85
2023-04-06T23:25:32.797Z,1.92
2023-04-06T23:28:00.686Z,1.87
2023-04-06T23:30:28.602Z,1.85
2023-04-06T23:32:56.597Z,1.87
2023-04-06T23:35:25.907Z,1.90
2023-04-06T23:37:54.069Z,1.91
2023-04-06T23:40:21.990Z,1.93
2023-04-06T23:42:52.540Z,1.88
2023-04-06T23:45:20.646Z,1.93
2023-04-06T23:47:48.580Z,1.90
2023-04-06T23:50:16.431Z,1.84
2023-04-06T23:52:45.680Z,1.88
2023-04-06T23:55:13.517Z,1.91
2023-04-06T23:57:41.341Z,1.90
